createdAt,value
2023-03-29T00:02:48.830Z,86.19
2023-03-29T00:06:51.307Z,86.75
2023-03-29T00:10:54.229Z,87.73
2023-03-29T00:14:55.797Z,89.20
2023-03-29T00:18:57.654Z,88.04
2023-03-29T00:22:59.334Z,88.97
2023-03-29T00:27:01.182Z,88.97
2023-03-29T00:31:11.532Z,89.09
2023-03-29T00:35:13.257Z,89.62
2023-03-29T00:39:14.898Z,89.71
2023-03-29T00:43:16.961Z,89.67
2023-03-29T00:47:25.005Z,89.88
2023-03-29T00:51:30.835Z,89.63
2023-03-29T00:55:37.922Z,90.14
2023-03-29T00:59:42.105Z,89.67
2023-03-29T01:03:50.257Z,90.04
2023-03-29T01:08:00.731Z,90.18
2023-03-29T01:12:09.127Z,91.25
2023-03-29T01:16:13.116Z,91.37
2023-03-29T01:20:31.942Z,91.76
2023-03-29T01:24:45.505Z,91.47
2023-03-29T01:28:53.247Z,92.30
2023-03-29T01:32:59.521Z,92.74
2023-03-29T01:37:07.724Z,92.46
2023-03-29T01:41:10.929Z,92.25
2023-03-29T01:45:21.112Z,92.70
2023-03-29T01:49:23.247Z,93.00
2023-03-29T01:53:37.488Z,93.45
2023-03-29T01:57:42.976Z,93.96
2023-03-29T02:01:51.070Z,94.80
2023-03-29T02:05:54.629Z,94.32
2023-03-29T02:09:58.412Z,94.69
2023-03-29T02:14:00.197Z,94.67
2023-03-29T02:18:04.066Z,94.57
2023-03-29T02:22:10.413Z,94.72
2023-03-29T02:26:14.608Z,94.21
2023-03-29T02:30:18.917Z,93.97
2023-03-29T02:34:28.341Z,94.07
2023-03-29T02:38:31.660Z,93.61
2023-03-29T02:42:35.823Z,93.84
2023-03-29T02:46:38.565Z,94.48
2023-03-29T02:50:42.042Z,95.47
2023-03-29T02:54:45.973Z,96.21
2023-03-29T02:58:47.698Z,95.54
2023-03-29T03:02:50.959Z,96.16
2023-03-29T03:06:53.375Z,96.42
2023-03-29T03:10:55.301Z,96.82
2023-03-29T03:14:57.048Z,97.94
2023-03-29T03:18:59.198Z,98.49
2023-03-29T03:23:03.531Z,98.43
2023-03-29T03:27:06.366Z,98.14
2023-03-29T03:31:08.283Z,97.03
2023-03-29T03:35:33.089Z,96.90
2023-03-29T03:39:34.882Z,97.65
2023-03-29T03:43:42.526Z,97.82
2023-03-29T03:47:45.686Z,97.54
2023-03-29T03:52:19.434Z,97.99
2023-03-29T03:56:21.652Z,99.18
2023-03-29T04:00:44.825Z,100.00
2023-03-29T04:05:04.922Z,100.00
2023-03-29T04:09:11.298Z,100.00
2023-03-29T04:13:17.300Z,100.00
2023-03-29T04:17:42.278Z,100.00
2023-03-29T04:21:55.008Z,100.00
2023-03-29T04:25:57.039Z,100.00
2023-03-29T04:30:36.935Z,100.00
2023-03-29T04:34:53.384Z,100.00
2023-03-29T04:38:55.180Z,100.00
2023-03-29T04:42:57.786Z,100.00
2023-03-29T04:47:00.758Z,100.00
2023-03-29T04:51:26.209Z,100.00
2023-03-29T04:55:29.545Z,100.00
2023-03-29T04:59:35.913Z,100.00
2023-03-29T05:03:45.887Z,100.00
2023-03-29T05:07:55.093Z,100.00
2023-03-29T05:12:02.554Z,100.00
2023-03-29T05:16:12.741Z,100.00
2023-03-29T05:20:16.318Z,100.00
2023-03-29T05:24:20.433Z,100.00
2023-03-29T05:28:31.032Z,100.00
2023-03-29T05:32:32.959Z,100.00
2023-03-29T05:36:34.979Z,100.00
2023-03-29T05:40:37.327Z,100.00
2023-03-29T05:45:13.987Z,100.00
2023-03-29T05:49:17.159Z,100.00
2023-03-29T05:53:34.101Z,99.75
2023-03-29T05:57:37.745Z,99.75
2023-03-29T06:01:42.159Z,98.27
2023-03-29T06:05:50.308Z,97.14
2023-03-29T06:09:54.186Z,96.48
2023-03-29T06:13:57.767Z,95.72
2023-03-29T06:18:00.077Z,96.08
2023-03-29T06:22:02.141Z,95.97
2023-03-29T06:26:07.874Z,95.40
2023-03-29T06:30:13.128Z,94.37
2023-03-29T06:34:16.542Z,93.96
2023-03-29T06:38:39.295Z,93.21
2023-03-29T06:42:59.716Z,93.08
2023-03-29T06:47:20.162Z,92.76
2023-03-29T06:51:23.539Z,91.90
2023-03-29T06:55:26.154Z,91.54
2023-03-29T06:59:30.082Z,89.77
2023-03-29T07:03:46.796Z,89.92
2023-03-29T07:07:56.585Z,89.60
2023-03-29T07:12:11.155Z,88.42
2023-03-29T07:16:13.978Z,87.40
2023-03-29T07:20:53.210Z,85.66
2023-03-29T07:24:56.132Z,84.24
2023-03-29T07:28:58.950Z,82.71
2023-03-29T07:33:00.943Z,80.12
2023-03-29T07:37:13.805Z,77.23
2023-03-29T07:41:17.554Z,73.90
2023-03-29T07:45:28.328Z,72.86
2023-03-29T07:49:36.162Z,72.79
2023-03-29T07:53:38.580Z,72.34
2023-03-29T07:57:50.477Z,71.17
2023-03-29T08:01:54.381Z,67.46
2023-03-29T08:06:12.994Z,67.48
2023-03-29T08:10:18.338Z,66.24
2023-03-29T08:14:44.626Z,64.08
2023-03-29T08:18:59.130Z,65.74
2023-03-29T08:23:18.086Z,64.87
2023-03-29T08:27:39.148Z,64.00
2023-03-29T08:31:43.084Z,61.90
2023-03-29T08:35:47.068Z,61.87
2023-03-29T08:39:57.277Z,60.57
2023-03-29T08:44:49.073Z,61.66
2023-03-29T08:49:02.883Z,59.28
2023-03-29T08:53:39.158Z,59.99
2023-03-29T08:58:03.137Z,59.79
2023-03-29T09:02:16.904Z,60.98
2023-03-29T09:06:22.217Z,60.31
2023-03-29T09:10:59.619Z,60.28
2023-03-29T09:15:19.714Z,60.43
2023-03-29T09:20:12.744Z,60.79
2023-03-29T09:24:38.790Z,60.06
2023-03-29T09:29:13.343Z,60.81
2023-03-29T09:33:25.120Z,60.06
2023-03-29T09:37:39.960Z,61.60
2023-03-29T09:41:53.103Z,60.52
2023-03-29T09:45:58.743Z,60.54
2023-03-29T09:50:37.008Z,60.34
2023-03-29T09:54:43.399Z,59.47
2023-03-29T09:59:14.064Z,59.17
2023-03-29T10:03:26.078Z,60.03
2023-03-29T10:07:48.117Z,60.06
2023-03-29T10:11:59.127Z,59.90
2023-03-29T10:16:17.258Z,60.36
2023-03-29T10:20:20.146Z,58.24
2023-03-29T10:24:23.134Z,58.21
2023-03-29T10:28:27.712Z,57.44
2023-03-29T10:32:36.217Z,56.91
2023-03-29T10:36:42.212Z,56.61
2023-03-29T10:40:49.661Z,56.13
2023-03-29T10:44:57.149Z,55.57
2023-03-29T10:49:02.755Z,54.51
2023-03-29T10:53:16.147Z,54.66
2023-03-29T10:57:40.930Z,53.71
2023-03-29T11:02:05.229Z,54.96
2023-03-29T11:06:28.232Z,54.79
2023-03-29T11:10:45.463Z,54.08
2023-03-29T11:14:53.925Z,53.56
2023-03-29T11:19:30.170Z,52.38
2023-03-29T11:24:03.137Z,52.98
2023-03-29T11:28:12.159Z,51.48
2023-03-29T11:32:39.138Z,50.33
2023-03-29T11:36:58.943Z,51.15
2023-03-29T11:41:15.137Z,52.26
2023-03-29T11:45:41.401Z,51.33
2023-03-29T11:49:45.726Z,51.05
2023-03-29T11:54:04.121Z,51.07
2023-03-29T11:58:36.564Z,50.24
2023-03-29T12:02:46.430Z,49.76
2023-03-29T12:07:01.922Z,48.62
2023-03-29T12:11:51.512Z,47.28
2023-03-29T12:16:01.138Z,47.08
2023-03-29T12:20:27.178Z,46.30
2023-03-29T12:24:36.583Z,44.19
2023-03-29T12:28:51.852Z,42.56
2023-03-29T12:33:18.192Z,42.49
2023-03-29T12:37:38.058Z,42.30
2023-03-29T12:41:41.788Z,43.07
2023-03-29T12:46:15.181Z,42.52
2023-03-29T12:50:32.965Z,44.00
2023-03-29T12:54:34.706Z,45.68
2023-03-29T12:58:39.629Z,45.60
2023-03-29T13:02:46.222Z,45.37
2023-03-29T13:07:02.945Z,45.67
2023-03-29T13:11:06.448Z,45.43
2023-03-29T13:15:17.126Z,45.08
2023-03-29T13:19:39.553Z,44.40
2023-03-29T13:24:02.248Z,42.41
2023-03-29T13:28:10.616Z,41.47
2023-03-29T13:32:20.146Z,42.94
2023-03-29T13:36:33.010Z,41.73
2023-03-29T13:40:41.127Z,40.89
2023-03-29T13:44:46.276Z,40.96
2023-03-29T13:48:54.274Z,41.63
2023-03-29T13:53:06.467Z,40.98
2023-03-29T13:57:17.357Z,41.66
2023-03-29T14:01:41.100Z,40.74
2023-03-29T14:05:56.615Z,40.40
2023-03-29T14:10:02.197Z,39.31
2023-03-29T14:14:06.962Z,40.33
2023-03-29T14:18:14.903Z,40.65
2023-03-29T14:22:20.832Z,40.60
2023-03-29T14:26:24.213Z,42.02
2023-03-29T14:30:29.042Z,42.79
2023-03-29T14:34:31.000Z,43.43
2023-03-29T14:38:37.048Z,44.32
2023-03-29T14:42:39.838Z,44.74
2023-03-29T14:46:44.774Z,45.16
2023-03-29T14:50:48.174Z,45.90
2023-03-29T14:54:53.131Z,46.53
2023-03-29T14:58:56.797Z,47.20
2023-03-29T15:03:01.626Z,46.99
2023-03-29T15:07:05.347Z,46.86
2023-03-29T15:11:27.478Z,47.30
2023-03-29T15:15:34.858Z,48.29
2023-03-29T15:19:37.175Z,48.17
2023-03-29T15:23:48.250Z,49.15
2023-03-29T15:27:54.470Z,50.00
2023-03-29T15:31:57.814Z,50.27
2023-03-29T15:36:01.489Z,51.13
2023-03-29T15:40:09.854Z,51.82
2023-03-29T15:44:13.003Z,52.81
2023-03-29T15:48:23.593Z,53.82
2023-03-29T15:52:26.137Z,54.61
2023-03-29T15:56:28.835Z,56.08
2023-03-29T16:00:30.947Z,56.85
2023-03-29T16:04:34.139Z,56.97
2023-03-29T16:08:36.221Z,56.24
2023-03-29T16:12:38.730Z,56.17
2023-03-29T16:16:40.590Z,56.09
2023-03-29T16:20:42.264Z,55.52
2023-03-29T16:24:44.013Z,55.61
2023-03-29T16:28:47.014Z,54.97
2023-03-29T16:32:48.851Z,55.35
2023-03-29T16:36:50.793Z,55.20
2023-03-29T16:40:52.750Z,55.45
2023-03-29T16:44:54.919Z,55.80
2023-03-29T16:48:58.029Z,56.53
2023-03-29T16:52:59.648Z,57.45
2023-03-29T16:57:02.175Z,57.97
2023-03-29T17:01:09.938Z,58.99
2023-03-29T17:05:13.144Z,59.22
2023-03-29T17:09:16.206Z,60.17
2023-03-29T17:13:21.378Z,60.66
2023-03-29T17:17:23.199Z,61.72
2023-03-29T17:21:26.761Z,63.45
2023-03-29T17:25:29.178Z,65.48
2023-03-29T17:29:31.007Z,66.80
2023-03-29T17:33:33.118Z,68.05
2023-03-29T17:37:35.500Z,69.44
2023-03-29T17:41:38.130Z,69.52
2023-03-29T17:45:39.781Z,69.72
2023-03-29T17:49:41.420Z,70.34
2023-03-29T17:53:43.178Z,71.44
2023-03-29T17:57:44.852Z,72.11
2023-03-29T18:01:46.614Z,73.39
2023-03-29T18:05:48.465Z,73.80
2023-03-29T18:09:51.502Z,74.58
2023-03-29T18:13:55.151Z,75.40
2023-03-29T18:17:57.544Z,76.37
2023-03-29T18:21:59.561Z,76.57
2023-03-29T18:26:05.947Z,77.03
2023-03-29T18:30:08.855Z,77.55
2023-03-29T18:34:10.730Z,78.35
2023-03-29T18:38:12.798Z,78.29
2023-03-29T18:42:14.626Z,78.09
2023-03-29T18:46:16.435Z,77.84
2023-03-29T18:50:18.294Z,77.77
2023-03-29T18:54:21.145Z,77.58
2023-03-29T18:58:24.138Z,76.42
2023-03-29T19:02:26.215Z,74.56
2023-03-29T19:06:27.990Z,73.49
2023-03-29T19:10:29.702Z,72.93
2023-03-29T19:14:31.353Z,71.54
2023-03-29T19:18:33.680Z,70.71
2023-03-29T19:22:35.812Z,68.65
2023-03-29T19:26:38.137Z,67.37
2023-03-29T19:30:39.872Z,65.42
2023-03-29T19:34:42.478Z,65.78
2023-03-29T19:38:44.976Z,64.10
2023-03-29T19:42:48.157Z,62.47
2023-03-29T19:46:51.396Z,62.60
2023-03-29T19:50:53.199Z,61.88
2023-03-29T19:54:58.760Z,61.56
2023-03-29T19:59:01.040Z,60.77
2023-03-29T20:03:03.707Z,60.54
2023-03-29T20:07:06.300Z,59.92
2023-03-29T20:11:11.233Z,60.07
2023-03-29T20:15:14.811Z,59.38
2023-03-29T20:19:24.920Z,58.82
2023-03-29T20:23:27.686Z,58.68
2023-03-29T20:27:29.563Z,58.48
2023-03-29T20:31:31.548Z,58.04
2023-03-29T20:35:34.137Z,57.38
2023-03-29T20:39:35.854Z,56.40
2023-03-29T20:43:38.034Z,55.17
2023-03-29T20:47:42.638Z,54.48
2023-03-29T20:51:44.429Z,53.20
2023-03-29T20:55:46.159Z,52.90
2023-03-29T20:59:51.775Z,52.54
2023-03-29T21:03:53.904Z,51.67
2023-03-29T21:07:55.785Z,51.71
2023-03-29T21:11:57.424Z,51.37
2023-03-29T21:15:59.148Z,51.15
2023-03-29T21:20:00.855Z,50.85
2023-03-29T21:24:03.812Z,51.12
2023-03-29T21:28:05.764Z,51.35
2023-03-29T21:32:07.731Z,51.20
2023-03-29T21:36:09.659Z,50.80
2023-03-29T21:40:12.774Z,50.62
2023-03-29T21:44:14.452Z,50.99
2023-03-29T21:48:17.330Z,50.31
2023-03-29T21:52:19.105Z,50.21
2023-03-29T21:56:22.597Z,50.16
2023-03-29T22:00:24.468Z,50.12
2023-03-29T22:04:35.910Z,49.46
2023-03-29T22:08:39.071Z,48.27
2023-03-29T22:12:41.461Z,49.31
2023-03-29T22:16:45.746Z,48.78
2023-03-29T22:20:48.551Z,49.18
2023-03-29T22:24:54.165Z,48.71
2023-03-29T22:28:57.814Z,49.06
2023-03-29T22:32:59.479Z,48.93
2023-03-29T22:37:01.170Z,48.89
2023-03-29T22:41:02.924Z,49.00
2023-03-29T22:45:05.379Z,49.13
2023-03-29T22:49:07.300Z,49.15
2023-03-29T22:53:10.388Z,49.28
2023-03-29T22:57:12.091Z,49.50
2023-03-29T23:01:13.834Z,49.59
2023-03-29T23:05:15.701Z,50.04
2023-03-29T23:09:17.390Z,50.19
2023-03-29T23:13:26.044Z,50.86
2023-03-29T23:17:28.014Z,51.03
2023-03-29T23:21:29.636Z,51.53
2023-03-29T23:25:31.561Z,51.12
2023-03-29T23:29:34.681Z,51.73
2023-03-29T23:33:38.677Z,51.32
2023-03-29T23:37:40.681Z,51.77
2023-03-29T23:41:42.354Z,51.86
2023-03-29T23:45:43.992Z,51.66
2023-03-29T23:49:45.658Z,51.98
2023-03-29T23:53:47.533Z,51.91
2023-03-29T23:57:49.229Z,52.09
